sensor_id;sensor_type;location;lat;lon;timestamp;P1;durP1;ratioP1;P2;durP2;ratioP2
43823;SDS011;29470;53.550;9.926;2022-10-16T00:00:48;13.43;;;7.20;;
43823;SDS011;29470;53.550;9.926;2022-10-16T00:05:51;10.85;;;6.35;;
43823;SDS011;29470;53.550;9.926;2022-10-16T00:10:58;8.82;;;5.70;;
43823;SDS011;29470;53.550;9.926;2022-10-16T00:16:03;9.20;;;5.57;;
43823;SDS011;29470;53.550;9.926;2022-10-16T00:21:08;8.05;;;5.10;;
43823;SDS011;29470;53.550;9.926;2022-10-16T00:26:12;7.97;;;4.78;;
43823;SDS011;29470;53.550;9.926;2022-10-16T00:31:18;8.57;;;4.13;;
43823;SDS011;29470;53.550;9.926;2022-10-16T00:36:24;7.88;;;3.55;;
43823;SDS011;29470;53.550;9.926;2022-10-16T00:41:28;8.38;;;3.75;;
43823;SDS011;29470;53.550;9.926;2022-10-16T00:46:34;8.45;;;3.03;;
43823;SDS011;29470;53.550;9.926;2022-10-16T00:51:39;4.23;;;2.70;;
43823;SDS011;29470;53.550;9.926;2022-10-16T00:56:44;4.93;;;2.53;;
43823;SDS011;29470;53.550;9.926;2022-10-16T01:01:50;6.38;;;2.40;;
43823;SDS011;29470;53.550;9.926;2022-10-16T01:06:54;4.65;;;2.45;;
43823;SDS011;29470;53.550;9.926;2022-10-16T01:12:05;6.28;;;2.85;;
43823;SDS011;29470;53.550;9.926;2022-10-16T01:17:13;3.63;;;2.10;;
43823;SDS011;29470;53.550;9.926;2022-10-16T01:22:21;5.25;;;2.30;;
43823;SDS011;29470;53.550;9.926;2022-10-16T01:27:30;4.47;;;1.92;;
43823;SDS011;29470;53.550;9.926;2022-10-16T01:32:38;5.28;;;2.10;;
43823;SDS011;29470;53.550;9.926;2022-10-16T01:37:45;5.00;;;2.42;;
43823;SDS011;29470;53.550;9.926;2022-10-16T01:42:53;4.70;;;2.17;;
43823;SDS011;29470;53.550;9.926;2022-10-16T01:48:02;6.80;;;2.45;;
43823;SDS011;29470;53.550;9.926;2022-10-16T01:53:11;5.95;;;2.22;;
43823;SDS011;29470;53.550;9.926;2022-10-16T01:58:17;3.88;;;2.15;;
43823;SDS011;29470;53.550;9.926;2022-10-16T02:03:20;5.28;;;2.70;;
43823;SDS011;29470;53.550;9.926;2022-10-16T02:08:24;4.75;;;2.40;;
43823;SDS011;29470;53.550;9.926;2022-10-16T02:13:32;7.07;;;3.45;;
43823;SDS011;29470;53.550;9.926;2022-10-16T02:18:40;6.65;;;2.50;;
43823;SDS011;29470;53.550;9.926;2022-10-16T02:23:45;4.53;;;2.55;;
43823;SDS011;29470;53.550;9.926;2022-10-16T02:28:55;3.85;;;1.90;;
43823;SDS011;29470;53.550;9.926;2022-10-16T02:34:02;5.50;;;2.10;;
43823;SDS011;29470;53.550;9.926;2022-10-16T02:39:08;7.43;;;1.98;;
43823;SDS011;29470;53.550;9.926;2022-10-16T02:44:14;5.57;;;1.80;;
43823;SDS011;29470;53.550;9.926;2022-10-16T02:49:17;4.70;;;2.22;;
43823;SDS011;29470;53.550;9.926;2022-10-16T02:54:20;4.50;;;1.92;;
43823;SDS011;29470;53.550;9.926;2022-10-16T02:59:24;5.32;;;2.10;;
43823;SDS011;29470;53.550;9.926;2022-10-16T03:04:27;4.70;;;2.28;;
43823;SDS011;29470;53.550;9.926;2022-10-16T03:09:29;4.60;;;2.10;;
43823;SDS011;29470;53.550;9.926;2022-10-16T03:14:34;3.95;;;2.13;;
43823;SDS011;29470;53.550;9.926;2022-10-16T03:19:37;6.82;;;2.30;;
43823;SDS011;29470;53.550;9.926;2022-10-16T03:24:39;5.90;;;2.35;;
43823;SDS011;29470;53.550;9.926;2022-10-16T03:29:44;6.53;;;2.63;;
43823;SDS011;29470;53.550;9.926;2022-10-16T03:34:46;5.15;;;2.40;;
43823;SDS011;29470;53.550;9.926;2022-10-16T03:39:49;4.45;;;2.20;;
43823;SDS011;29470;53.550;9.926;2022-10-16T03:44:54;6.07;;;2.35;;
43823;SDS011;29470;53.550;9.926;2022-10-16T03:49:56;7.32;;;2.03;;
43823;SDS011;29470;53.550;9.926;2022-10-16T03:54:59;5.00;;;1.88;;
43823;SDS011;29470;53.550;9.926;2022-10-16T04:00:04;7.40;;;2.03;;
43823;SDS011;29470;53.550;9.926;2022-10-16T04:05:12;4.30;;;1.98;;
43823;SDS011;29470;53.550;9.926;2022-10-16T04:10:15;4.32;;;2.60;;
43823;SDS011;29470;53.550;9.926;2022-10-16T04:15:19;4.85;;;2.40;;
43823;SDS011;29470;53.550;9.926;2022-10-16T04:20:22;5.18;;;1.98;;
43823;SDS011;29470;53.550;9.926;2022-10-16T04:25:25;5.05;;;2.25;;
43823;SDS011;29470;53.550;9.926;2022-10-16T04:30:29;5.50;;;2.45;;
43823;SDS011;29470;53.550;9.926;2022-10-16T04:35:32;6.97;;;2.60;;
43823;SDS011;29470;53.550;9.926;2022-10-16T04:40:35;6.90;;;2.67;;
43823;SDS011;29470;53.550;9.926;2022-10-16T04:45:39;8.18;;;3.00;;
43823;SDS011;29470;53.550;9.926;2022-10-16T04:50:42;8.40;;;2.80;;
43823;SDS011;29470;53.550;9.926;2022-10-16T04:55:45;7.25;;;3.30;;
43823;SDS011;29470;53.550;9.926;2022-10-16T05:00:49;7.22;;;3.35;;
43823;SDS011;29470;53.550;9.926;2022-10-16T05:05:52;9.75;;;3.78;;
43823;SDS011;29470;53.550;9.926;2022-10-16T05:10:56;7.32;;;4.38;;
43823;SDS011;29470;53.550;9.926;2022-10-16T05:16:00;7.70;;;4.07;;
43823;SDS011;29470;53.550;9.926;2022-10-16T05:21:03;6.03;;;3.97;;
43823;SDS011;29470;53.550;9.926;2022-10-16T05:26:08;6.35;;;3.95;;
43823;SDS011;29470;53.550;9.926;2022-10-16T05:31:12;10.57;;;4.68;;
43823;SDS011;29470;53.550;9.926;2022-10-16T05:36:16;7.97;;;4.70;;
43823;SDS011;29470;53.550;9.926;2022-10-16T05:41:19;8.85;;;4.00;;
43823;SDS011;29470;53.550;9.926;2022-10-16T05:46:24;6.10;;;3.45;;
43823;SDS011;29470;53.550;9.926;2022-10-16T05:51:27;7.28;;;3.50;;
43823;SDS011;29470;53.550;9.926;2022-10-16T05:56:30;6.22;;;3.15;;
43823;SDS011;29470;53.550;9.926;2022-10-16T06:01:34;5.13;;;3.00;;
43823;SDS011;29470;53.550;9.926;2022-10-16T06:06:37;6.72;;;3.42;;
43823;SDS011;29470;53.550;9.926;2022-10-16T06:11:40;7.45;;;2.90;;
43823;SDS011;29470;53.550;9.926;2022-10-16T06:16:44;7.90;;;3.25;;
43823;SDS011;29470;53.550;9.926;2022-10-16T06:21:47;6.10;;;3.38;;
43823;SDS011;29470;53.550;9.926;2022-10-16T06:26:50;7.53;;;2.80;;
43823;SDS011;29470;53.550;9.926;2022-10-16T06:31:54;6.82;;;2.72;;
43823;SDS011;29470;53.550;9.926;2022-10-16T06:36:57;8.07;;;3.58;;
43823;SDS011;29470;53.550;9.926;2022-10-16T06:42:00;5.43;;;2.58;;
43823;SDS011;29470;53.550;9.926;2022-10-16T06:47:10;5.97;;;2.40;;
43823;SDS011;29470;53.550;9.926;2022-10-16T06:52:14;6.50;;;3.03;;
43823;SDS011;29470;53.550;9.926;2022-10-16T06:57:17;4.47;;;2.65;;
43823;SDS011;29470;53.550;9.926;2022-10-16T07:02:22;6.22;;;2.85;;
43823;SDS011;29470;53.550;9.926;2022-10-16T07:07:25;5.28;;;2.90;;
43823;SDS011;29470;53.550;9.926;2022-10-16T07:12:28;6.20;;;2.80;;
43823;SDS011;29470;53.550;9.926;2022-10-16T07:17:32;6.40;;;2.88;;
43823;SDS011;29470;53.550;9.926;2022-10-16T07:22:35;5.05;;;3.03;;
43823;SDS011;29470;53.550;9.926;2022-10-16T07:27:38;7.55;;;2.90;;
43823;SDS011;29470;53.550;9.926;2022-10-16T07:32:42;8.70;;;3.17;;
43823;SDS011;29470;53.550;9.926;2022-10-16T07:37:45;5.70;;;2.83;;
43823;SDS011;29470;53.550;9.926;2022-10-16T07:42:48;6.53;;;3.38;;
43823;SDS011;29470;53.550;9.926;2022-10-16T07:47:53;5.72;;;3.10;;
43823;SDS011;29470;53.550;9.926;2022-10-16T07:52:55;7.05;;;3.25;;
43823;SDS011;29470;53.550;9.926;2022-10-16T07:57:58;4.32;;;3.00;;
43823;SDS011;29470;53.550;9.926;2022-10-16T08:03:03;7.65;;;3.25;;
43823;SDS011;29470;53.550;9.926;2022-10-16T08:08:06;5.13;;;2.80;;
43823;SDS011;29470;53.550;9.926;2022-10-16T08:13:09;7.53;;;3.65;;
43823;SDS011;29470;53.550;9.926;2022-10-16T08:18:14;5.50;;;3.20;;
43823;SDS011;29470;53.550;9.926;2022-10-16T08:23:17;7.30;;;3.67;;
43823;SDS011;29470;53.550;9.926;2022-10-16T08:28:20;6.30;;;2.85;;
43823;SDS011;29470;53.550;9.926;2022-10-16T08:33:25;6.10;;;3.13;;
43823;SDS011;29470;53.550;9.926;2022-10-16T08:38:28;4.90;;;2.40;;
43823;SDS011;29470;53.550;9.926;2022-10-16T08:43:37;9.63;;;3.00;;
43823;SDS011;29470;53.550;9.926;2022-10-16T08:48:49;6.30;;;3.60;;
43823;SDS011;29470;53.550;9.926;2022-10-16T08:53:54;4.82;;;3.03;;
43823;SDS011;29470;53.550;9.926;2022-10-16T08:58:59;6.07;;;2.47;;
43823;SDS011;29470;53.550;9.926;2022-10-16T09:04:07;6.30;;;2.75;;
43823;SDS011;29470;53.550;9.926;2022-10-16T09:09:44;6.63;;;3.08;;
43823;SDS011;29470;53.550;9.926;2022-10-16T09:14:58;3.63;;;2.30;;
43823;SDS011;29470;53.550;9.926;2022-10-16T09:20:23;3.67;;;2.40;;
43823;SDS011;29470;53.550;9.926;2022-10-16T09:25:31;3.53;;;1.83;;
43823;SDS011;29470;53.550;9.926;2022-10-16T09:30:36;4.75;;;2.50;;
43823;SDS011;29470;53.550;9.926;2022-10-16T09:35:42;5.03;;;2.00;;
43823;SDS011;29470;53.550;9.926;2022-10-16T09:40:46;4.93;;;1.67;;
43823;SDS011;29470;53.550;9.926;2022-10-16T09:46:04;3.58;;;1.35;;
43823;SDS011;29470;53.550;9.926;2022-10-16T09:51:16;6.78;;;1.95;;
43823;SDS011;29470;53.550;9.926;2022-10-16T09:56:22;5.40;;;1.30;;
43823;SDS011;29470;53.550;9.926;2022-10-16T10:01:28;4.22;;;1.83;;
43823;SDS011;29470;53.550;9.926;2022-10-16T10:06:35;3.17;;;1.70;;
43823;SDS011;29470;53.550;9.926;2022-10-16T10:11:44;6.10;;;2.10;;
43823;SDS011;29470;53.550;9.926;2022-10-16T10:16:50;6.85;;;2.72;;
43823;SDS011;29470;53.550;9.926;2022-10-16T10:21:56;3.63;;;1.70;;
43823;SDS011;29470;53.550;9.926;2022-10-16T10:27:00;4.82;;;1.40;;
43823;SDS011;29470;53.550;9.926;2022-10-16T10:32:17;5.38;;;1.58;;
43823;SDS011;29470;53.550;9.926;2022-10-16T10:37:35;4.00;;;1.80;;
43823;SDS011;29470;53.550;9.926;2022-10-16T10:42:49;4.35;;;1.50;;
43823;SDS011;29470;53.550;9.926;2022-10-16T10:47:59;4.93;;;1.30;;
43823;SDS011;29470;53.550;9.926;2022-10-16T10:53:21;4.05;;;1.40;;
43823;SDS011;29470;53.550;9.926;2022-10-16T10:58:39;4.07;;;1.00;;
43823;SDS011;29470;53.550;9.926;2022-10-16T11:04:08;3.58;;;1.45;;
43823;SDS011;29470;53.550;9.926;2022-10-16T11:09:34;4.82;;;1.20;;
43823;SDS011;29470;53.550;9.926;2022-10-16T11:14:42;3.42;;;1.05;;
43823;SDS011;29470;53.550;9.926;2022-10-16T11:19:52;2.03;;;1.00;;
43823;SDS011;29470;53.550;9.926;2022-10-16T11:25:02;2.88;;;0.82;;
43823;SDS011;29470;53.550;9.926;2022-10-16T11:30:16;7.80;;;2.55;;
43823;SDS011;29470;53.550;9.926;2022-10-16T11:35:23;4.25;;;1.30;;
43823;SDS011;29470;53.550;9.926;2022-10-16T11:40:32;6.07;;;1.58;;
43823;SDS011;29470;53.550;9.926;2022-10-16T11:45:42;4.18;;;1.10;;
43823;SDS011;29470;53.550;9.926;2022-10-16T11:50:50;4.93;;;1.10;;
43823;SDS011;29470;53.550;9.926;2022-10-16T11:55:57;3.60;;;1.10;;
43823;SDS011;29470;53.550;9.926;2022-10-16T12:01:01;2.58;;;0.90;;
43823;SDS011;29470;53.550;9.926;2022-10-16T12:06:23;5.93;;;1.40;;
43823;SDS011;29470;53.550;9.926;2022-10-16T12:11:36;6.60;;;1.25;;
43823;SDS011;29470;53.550;9.926;2022-10-16T12:16:50;5.70;;;1.43;;
43823;SDS011;29470;53.550;9.926;2022-10-16T12:21:54;5.50;;;1.52;;
43823;SDS011;29470;53.550;9.926;2022-10-16T12:27:00;4.45;;;1.20;;
43823;SDS011;29470;53.550;9.926;2022-10-16T12:32:05;3.88;;;1.15;;
43823;SDS011;29470;53.550;9.926;2022-10-16T12:42:48;4.90;;;1.48;;
43823;SDS011;29470;53.550;9.926;2022-10-16T12:47:52;2.55;;;0.90;;
43823;SDS011;29470;53.550;9.926;2022-10-16T12:52:56;3.80;;;1.00;;
43823;SDS011;29470;53.550;9.926;2022-10-16T12:58:06;4.57;;;1.23;;
43823;SDS011;29470;53.550;9.926;2022-10-16T13:03:42;4.10;;;1.33;;
43823;SDS011;29470;53.550;9.926;2022-10-16T13:14:44;4.45;;;1.75;;
43823;SDS011;29470;53.550;9.926;2022-10-16T13:20:04;5.10;;;1.40;;
43823;SDS011;29470;53.550;9.926;2022-10-16T13:25:22;5.47;;;1.08;;
43823;SDS011;29470;53.550;9.926;2022-10-16T13:30:37;4.50;;;1.52;;
43823;SDS011;29470;53.550;9.926;2022-10-16T13:40:51;3.65;;;1.20;;
43823;SDS011;29470;53.550;9.926;2022-10-16T13:45:58;4.57;;;1.40;;
43823;SDS011;29470;53.550;9.926;2022-10-16T13:51:04;2.25;;;1.08;;
43823;SDS011;29470;53.550;9.926;2022-10-16T13:56:10;5.55;;;1.20;;
43823;SDS011;29470;53.550;9.926;2022-10-16T14:01:17;2.97;;;1.27;;
43823;SDS011;29470;53.550;9.926;2022-10-16T14:06:22;4.90;;;1.50;;
43823;SDS011;29470;53.550;9.926;2022-10-16T14:11:25;5.40;;;1.27;;
43823;SDS011;29470;53.550;9.926;2022-10-16T14:16:30;5.85;;;1.50;;
43823;SDS011;29470;53.550;9.926;2022-10-16T14:21:34;6.13;;;1.30;;
43823;SDS011;29470;53.550;9.926;2022-10-16T14:26:40;5.15;;;1.38;;
43823;SDS011;29470;53.550;9.926;2022-10-16T14:31:55;5.15;;;1.70;;
43823;SDS011;29470;53.550;9.926;2022-10-16T14:37:00;6.55;;;2.28;;
43823;SDS011;29470;53.550;9.926;2022-10-16T14:42:11;5.53;;;1.65;;
43823;SDS011;29470;53.550;9.926;2022-10-16T14:47:20;5.43;;;2.25;;
43823;SDS011;29470;53.550;9.926;2022-10-16T14:52:27;5.20;;;1.60;;
43823;SDS011;29470;53.550;9.926;2022-10-16T14:57:31;6.28;;;1.85;;
43823;SDS011;29470;53.550;9.926;2022-10-16T15:07:42;7.57;;;1.50;;
43823;SDS011;29470;53.550;9.926;2022-10-16T15:12:45;5.75;;;1.55;;
43823;SDS011;29470;53.550;9.926;2022-10-16T15:17:50;7.88;;;1.67;;
43823;SDS011;29470;53.550;9.926;2022-10-16T15:22:55;4.28;;;1.95;;
43823;SDS011;29470;53.550;9.926;2022-10-16T15:28:02;3.72;;;1.65;;
43823;SDS011;29470;53.550;9.926;2022-10-16T15:33:14;5.82;;;1.67;;
43823;SDS011;29470;53.550;9.926;2022-10-16T15:38:22;7.07;;;2.20;;
43823;SDS011;29470;53.550;9.926;2022-10-16T15:43:25;6.28;;;1.80;;
43823;SDS011;29470;53.550;9.926;2022-10-16T15:48:31;7.82;;;2.53;;
43823;SDS011;29470;53.550;9.926;2022-10-16T15:53:35;7.28;;;2.10;;
43823;SDS011;29470;53.550;9.926;2022-10-16T15:58:47;7.40;;;2.22;;
43823;SDS011;29470;53.550;9.926;2022-10-16T16:03:53;8.00;;;2.03;;
43823;SDS011;29470;53.550;9.926;2022-10-16T16:08:57;10.23;;;2.58;;
43823;SDS011;29470;53.550;9.926;2022-10-16T16:14:03;9.93;;;2.33;;
43823;SDS011;29470;53.550;9.926;2022-10-16T16:19:07;8.00;;;2.80;;
43823;SDS011;29470;53.550;9.926;2022-10-16T16:24:12;6.72;;;2.08;;
43823;SDS011;29470;53.550;9.926;2022-10-16T16:29:15;6.63;;;1.55;;
43823;SDS011;29470;53.550;9.926;2022-10-16T16:34:20;11.65;;;3.33;;
43823;SDS011;29470;53.550;9.926;2022-10-16T16:39:23;10.30;;;4.03;;
43823;SDS011;29470;53.550;9.926;2022-10-16T16:44:26;10.68;;;4.35;;
43823;SDS011;29470;53.550;9.926;2022-10-16T16:49:30;11.73;;;5.32;;
43823;SDS011;29470;53.550;9.926;2022-10-16T16:54:33;11.38;;;5.60;;
43823;SDS011;29470;53.550;9.926;2022-10-16T16:59:36;8.95;;;4.53;;
43823;SDS011;29470;53.550;9.926;2022-10-16T17:04:42;11.15;;;5.20;;
43823;SDS011;29470;53.550;9.926;2022-10-16T17:09:45;12.50;;;5.35;;
43823;SDS011;29470;53.550;9.926;2022-10-16T17:14:49;10.48;;;4.40;;
43823;SDS011;29470;53.550;9.926;2022-10-16T17:19:54;11.32;;;4.15;;
43823;SDS011;29470;53.550;9.926;2022-10-16T17:24:57;16.45;;;6.10;;
43823;SDS011;29470;53.550;9.926;2022-10-16T17:29:59;10.18;;;4.60;;
43823;SDS011;29470;53.550;9.926;2022-10-16T17:35:04;13.63;;;5.55;;
43823;SDS011;29470;53.550;9.926;2022-10-16T17:40:09;11.73;;;3.60;;
43823;SDS011;29470;53.550;9.926;2022-10-16T17:45:13;9.02;;;3.20;;
43823;SDS011;29470;53.550;9.926;2022-10-16T17:50:21;12.57;;;3.72;;
43823;SDS011;29470;53.550;9.926;2022-10-16T17:55:26;8.15;;;3.05;;
43823;SDS011;29470;53.550;9.926;2022-10-16T18:00:29;10.93;;;3.10;;
43823;SDS011;29470;53.550;9.926;2022-10-16T18:05:34;14.48;;;5.38;;
43823;SDS011;29470;53.550;9.926;2022-10-16T18:10:44;11.15;;;4.55;;
43823;SDS011;29470;53.550;9.926;2022-10-16T18:15:50;9.50;;;4.70;;
43823;SDS011;29470;53.550;9.926;2022-10-16T18:21:04;8.40;;;3.10;;
43823;SDS011;29470;53.550;9.926;2022-10-16T18:26:10;7.72;;;3.33;;
43823;SDS011;29470;53.550;9.926;2022-10-16T18:31:14;9.60;;;3.28;;
43823;SDS011;29470;53.550;9.926;2022-10-16T18:36:25;8.90;;;3.83;;
43823;SDS011;29470;53.550;9.926;2022-10-16T18:46:42;8.15;;;3.10;;
43823;SDS011;29470;53.550;9.926;2022-10-16T18:51:47;10.50;;;3.92;;
43823;SDS011;29470;53.550;9.926;2022-10-16T18:56:53;9.30;;;3.40;;
43823;SDS011;29470;53.550;9.926;2022-10-16T19:01:56;13.15;;;4.82;;
43823;SDS011;29470;53.550;9.926;2022-10-16T19:07:02;20.85;;;8.63;;
43823;SDS011;29470;53.550;9.926;2022-10-16T19:12:05;9.35;;;4.30;;
43823;SDS011;29470;53.550;9.926;2022-10-16T19:17:15;8.75;;;3.50;;
43823;SDS011;29470;53.550;9.926;2022-10-16T19:22:20;12.60;;;3.45;;
43823;SDS011;29470;53.550;9.926;2022-10-16T19:27:53;9.23;;;4.70;;
43823;SDS011;29470;53.550;9.926;2022-10-16T19:32:57;9.02;;;4.00;;
43823;SDS011;29470;53.550;9.926;2022-10-16T19:38:08;9.02;;;3.22;;
43823;SDS011;29470;53.550;9.926;2022-10-16T19:43:21;8.50;;;3.80;;
43823;SDS011;29470;53.550;9.926;2022-10-16T19:48:24;8.15;;;3.40;;
43823;SDS011;29470;53.550;9.926;2022-10-16T19:53:29;9.15;;;3.78;;
43823;SDS011;29470;53.550;9.926;2022-10-16T19:59:05;7.30;;;3.45;;
43823;SDS011;29470;53.550;9.926;2022-10-16T20:05:56;9.75;;;4.55;;
43823;SDS011;29470;53.550;9.926;2022-10-16T20:18:09;11.40;;;5.30;;
43823;SDS011;29470;53.550;9.926;2022-10-16T20:23:41;12.32;;;5.40;;
43823;SDS011;29470;53.550;9.926;2022-10-16T20:43:39;12.10;;;4.80;;
43823;SDS011;29470;53.550;9.926;2022-10-16T20:48:49;10.60;;;4.90;;
43823;SDS011;29470;53.550;9.926;2022-10-16T20:53:53;10.23;;;5.38;;
43823;SDS011;29470;53.550;9.926;2022-10-16T20:58:58;10.63;;;5.63;;
43823;SDS011;29470;53.550;9.926;2022-10-16T21:04:04;14.23;;;4.72;;
43823;SDS011;29470;53.550;9.926;2022-10-16T21:09:08;11.40;;;4.82;;
43823;SDS011;29470;53.550;9.926;2022-10-16T21:14:13;11.20;;;4.47;;
43823;SDS011;29470;53.550;9.926;2022-10-16T21:19:16;12.25;;;5.32;;
43823;SDS011;29470;53.550;9.926;2022-10-16T21:24:22;9.43;;;4.32;;
43823;SDS011;29470;53.550;9.926;2022-10-16T21:29:29;8.95;;;4.72;;
43823;SDS011;29470;53.550;9.926;2022-10-16T21:34:33;12.18;;;5.35;;
43823;SDS011;29470;53.550;9.926;2022-10-16T21:39:36;10.32;;;4.25;;
43823;SDS011;29470;53.550;9.926;2022-10-16T21:44:41;8.68;;;4.50;;
43823;SDS011;29470;53.550;9.926;2022-10-16T21:49:43;9.32;;;4.00;;
43823;SDS011;29470;53.550;9.926;2022-10-16T21:54:46;8.23;;;4.20;;
43823;SDS011;29470;53.550;9.926;2022-10-16T22:00:00;11.40;;;4.30;;
43823;SDS011;29470;53.550;9.926;2022-10-16T22:05:07;10.15;;;4.35;;
43823;SDS011;29470;53.550;9.926;2022-10-16T22:10:10;9.93;;;4.43;;
43823;SDS011;29470;53.550;9.926;2022-10-16T22:15:15;9.52;;;4.60;;
43823;SDS011;29470;53.550;9.926;2022-10-16T22:20:18;9.48;;;3.88;;
43823;SDS011;29470;53.550;9.926;2022-10-16T22:25:24;10.35;;;4.13;;
43823;SDS011;29470;53.550;9.926;2022-10-16T22:30:28;8.98;;;4.03;;
43823;SDS011;29470;53.550;9.926;2022-10-16T22:35:34;11.02;;;4.10;;
43823;SDS011;29470;53.550;9.926;2022-10-16T22:40:40;9.40;;;4.20;;
43823;SDS011;29470;53.550;9.926;2022-10-16T22:45:44;10.70;;;4.30;;
43823;SDS011;29470;53.550;9.926;2022-10-16T22:50:47;8.13;;;5.18;;
43823;SDS011;29470;53.550;9.926;2022-10-16T22:55:50;11.18;;;5.10;;
43823;SDS011;29470;53.550;9.926;2022-10-16T23:00:54;12.27;;;4.88;;
43823;SDS011;29470;53.550;9.926;2022-10-16T23:05:57;10.35;;;5.00;;
43823;SDS011;29470;53.550;9.926;2022-10-16T23:11:03;8.35;;;4.28;;
43823;SDS011;29470;53.550;9.926;2022-10-16T23:16:08;6.90;;;4.07;;
43823;SDS011;29470;53.550;9.926;2022-10-16T23:21:14;10.70;;;4.32;;
43823;SDS011;29470;53.550;9.926;2022-10-16T23:26:19;7.57;;;4.03;;
43823;SDS011;29470;53.550;9.926;2022-10-16T23:31:25;6.00;;;3.60;;
43823;SDS011;29470;53.550;9.926;2022-10-16T23:36:28;7.75;;;3.70;;
43823;SDS011;29470;53.550;9.926;2022-10-16T23:41:31;7.65;;;4.13;;
43823;SDS011;29470;53.550;9.926;2022-10-16T23:46:36;8.30;;;4.00;;
43823;SDS011;29470;53.550;9.926;2022-10-16T23:51:39;8.13;;;4.13;;
43823;SDS011;29470;53.550;9.926;2022-10-16T23:56:42;9.68;;;4.80;;
